createdAt,value
2018-12-30T00:04:24.075Z,17.05
2018-12-30T00:07:14.016Z,14.20
2018-12-30T00:09:56.269Z,10.37
2018-12-30T00:12:46.017Z,9.58
2018-12-30T00:15:28.992Z,11.13
2018-12-30T00:18:18.700Z,9.40
2018-12-30T00:21:08.799Z,13.87
2018-12-30T00:23:52.342Z,16.60
2018-12-30T00:26:35.016Z,11.90
2018-12-30T00:29:20.097Z,14.50
2018-12-30T00:32:09.765Z,12.97
2018-12-30T00:34:54.002Z,13.63
2018-12-30T00:37:43.710Z,12.80
2018-12-30T00:40:25.804Z,18.63
2018-12-30T00:43:17.218Z,12.63
2018-12-30T00:48:53.134Z,11.97
2018-12-30T00:51:42.686Z,16.13
2018-12-30T00:54:25.028Z,21.15
2018-12-30T00:57:15.555Z,10.33
2018-12-30T01:00:05.973Z,10.60
2018-12-30T01:02:47.854Z,11.57
2018-12-30T01:05:39.288Z,10.07
2018-12-30T01:08:21.819Z,14.47
2018-12-30T01:11:11.494Z,11.67
2018-12-30T01:14:01.186Z,13.03
2018-12-30T01:16:43.904Z,11.20
2018-12-30T01:19:33.609Z,19.50
2018-12-30T01:22:16.281Z,19.33
2018-12-30T01:25:06.416Z,19.40
2018-12-30T01:27:50.383Z,18.33
2018-12-30T01:30:32.915Z,22.10
2018-12-30T01:33:41.602Z,28.30
2018-12-30T01:36:24.446Z,18.10
2018-12-30T01:42:15.773Z,32.05
2018-12-30T01:45:05.530Z,27.63
2018-12-30T01:47:47.167Z,20.43
2018-12-30T01:50:37.048Z,25.83
2018-12-30T01:53:21.452Z,24.23
2018-12-30T01:56:10.869Z,29.13
2018-12-30T01:58:53.342Z,32.80
2018-12-30T02:04:43.892Z,31.10
2018-12-30T02:07:33.435Z,37.97
2018-12-30T02:10:17.056Z,39.77
2018-12-30T02:13:06.761Z,41.67
2018-12-30T02:15:49.745Z,35.23
2018-12-30T02:18:41.137Z,41.77
2018-12-30T02:21:23.329Z,39.33
2018-12-30T02:24:12.998Z,33.10
2018-12-30T02:26:55.668Z,34.80
2018-12-30T02:29:38.045Z,32.70
2018-12-30T02:35:15.964Z,29.37
2018-12-30T02:38:05.653Z,39.03
2018-12-30T02:40:51.750Z,26.00
2018-12-30T02:43:41.423Z,39.13
2018-12-30T02:46:25.413Z,36.13
2018-12-30T02:49:15.058Z,40.60
2018-12-30T02:51:57.364Z,32.43
2018-12-30T02:54:47.750Z,39.03
2018-12-30T02:57:30.097Z,28.92
2018-12-30T03:03:21.549Z,43.80
2018-12-30T03:06:11.188Z,36.97
2018-12-30T03:08:53.564Z,43.40
2018-12-30T03:11:43.272Z,34.77
2018-12-30T03:14:25.848Z,37.27
2018-12-30T03:17:15.471Z,37.97
2018-12-30T03:19:58.399Z,38.20
2018-12-30T03:22:48.354Z,34.35
2018-12-30T03:25:31.179Z,38.83
2018-12-30T03:28:20.777Z,44.80
2018-12-30T03:31:03.140Z,40.87
2018-12-30T03:33:52.784Z,40.65
2018-12-30T03:36:35.140Z,39.37
2018-12-30T03:39:24.743Z,45.60
2018-12-30T03:42:07.220Z,43.65
2018-12-30T03:47:58.290Z,40.63
2018-12-30T03:53:49.200Z,35.10
2018-12-30T03:56:38.893Z,38.20
2018-12-30T03:59:21.321Z,42.00
2018-12-30T04:02:10.983Z,29.07
2018-12-30T04:04:53.255Z,28.23
2018-12-30T04:08:02.365Z,36.83
2018-12-30T04:10:44.454Z,29.20
2018-12-30T04:13:34.130Z,26.07
2018-12-30T04:16:16.484Z,29.43
2018-12-30T04:19:06.230Z,27.00
2018-12-30T04:21:48.036Z,28.97
2018-12-30T04:24:18.357Z,31.30
2018-12-30T04:29:43.753Z,35.83
2018-12-30T04:32:33.850Z,33.30
2018-12-30T04:35:16.722Z,39.20
2018-12-30T04:38:06.382Z,25.47
2018-12-30T04:40:56.366Z,21.82
2018-12-30T04:43:40.275Z,25.52
2018-12-30T04:46:29.960Z,23.40
2018-12-30T04:49:12.253Z,26.70
2018-12-30T04:52:02.060Z,25.03
2018-12-30T04:54:45.871Z,21.57
2018-12-30T04:57:27.715Z,21.37
2018-12-30T05:00:17.351Z,21.68
2018-12-30T05:02:59.903Z,19.63
2018-12-30T05:05:49.587Z,24.10
2018-12-30T05:08:32.202Z,20.85
2018-12-30T05:11:21.900Z,21.37
2018-12-30T05:14:11.633Z,23.05
2018-12-30T05:16:54.072Z,19.13
2018-12-30T05:19:43.726Z,23.87
2018-12-30T05:22:33.628Z,25.80
2018-12-30T05:25:17.396Z,16.23
2018-12-30T05:28:00.171Z,20.67
2018-12-30T05:30:42.102Z,18.20
2018-12-30T05:33:31.804Z,20.50
2018-12-30T05:36:03.030Z,20.05
2018-12-30T05:38:52.194Z,16.07
2018-12-30T05:41:34.946Z,16.43
2018-12-30T05:44:24.560Z,13.60
2018-12-30T05:47:09.816Z,17.10
2018-12-30T05:49:59.804Z,13.07
2018-12-30T05:52:42.712Z,16.42
2018-12-30T05:55:32.433Z,19.27
2018-12-30T05:58:16.683Z,15.05
2018-12-30T06:01:06.425Z,17.40
2018-12-30T06:03:49.022Z,15.93
2018-12-30T06:06:39.009Z,13.53
2018-12-30T06:09:21.055Z,17.40
2018-12-30T06:12:10.729Z,13.77
2018-12-30T06:17:49.735Z,13.07
2018-12-30T06:20:32.168Z,18.10
2018-12-30T06:23:21.886Z,15.70
2018-12-30T06:26:04.667Z,23.10
2018-12-30T06:28:54.709Z,17.13
2018-12-30T06:31:36.804Z,17.57
2018-12-30T06:34:07.180Z,17.50
2018-12-30T06:36:56.862Z,16.43
2018-12-30T06:39:46.545Z,18.57
2018-12-30T06:42:28.951Z,23.33
2018-12-30T06:45:18.632Z,14.37
2018-12-30T06:48:01.407Z,19.23
2018-12-30T06:50:51.127Z,16.37
2018-12-30T06:53:34.889Z,18.17
2018-12-30T06:56:25.004Z,20.25
2018-12-30T06:59:14.668Z,17.37
2018-12-30T07:02:04.354Z,15.87
2018-12-30T07:04:46.771Z,12.60
2018-12-30T07:10:25.867Z,18.35
2018-12-30T07:13:15.520Z,17.63
2018-12-30T07:15:57.876Z,14.80
2018-12-30T07:18:47.249Z,12.90
2018-12-30T07:21:29.821Z,14.53
2018-12-30T07:24:19.209Z,9.20
2018-12-30T07:27:00.989Z,13.97
2018-12-30T07:29:51.027Z,18.15
2018-12-30T07:32:34.641Z,19.73
2018-12-30T07:35:24.186Z,12.43
2018-12-30T07:38:06.858Z,21.23
2018-12-30T07:40:49.483Z,21.85
2018-12-30T07:43:39.070Z,15.93
2018-12-30T07:46:21.994Z,18.90
2018-12-30T07:49:11.664Z,15.17
2018-12-30T07:52:01.348Z,22.00
2018-12-30T07:54:44.335Z,18.33
2018-12-30T07:57:33.747Z,21.33
2018-12-30T08:00:17.043Z,17.10
2018-12-30T08:03:06.463Z,16.30
2018-12-30T08:05:48.793Z,12.33
2018-12-30T08:08:38.164Z,17.92
2018-12-30T08:11:21.682Z,13.40
2018-12-30T08:14:24.983Z,9.27
2018-12-30T08:16:55.645Z,18.57
2018-12-30T08:19:45.095Z,22.07
2018-12-30T08:22:27.227Z,12.87
2018-12-30T08:25:16.619Z,21.27
2018-12-30T08:27:58.179Z,18.98
2018-12-30T08:30:47.570Z,15.63
2018-12-30T08:33:30.482Z,15.30
2018-12-30T08:36:20.735Z,12.10
2018-12-30T08:39:02.295Z,11.60
2018-12-30T08:41:51.699Z,11.43
2018-12-30T08:44:34.176Z,17.35
2018-12-30T08:47:23.642Z,21.10
2018-12-30T08:50:07.997Z,16.87
2018-12-30T08:52:57.400Z,17.83
2018-12-30T08:55:41.266Z,16.40
2018-12-30T08:58:12.189Z,16.50
2018-12-30T09:01:01.556Z,12.87
2018-12-30T09:03:51.183Z,16.43
2018-12-30T09:06:33.736Z,14.17
2018-12-30T09:12:11.985Z,16.53
2018-12-30T09:15:01.299Z,18.80
2018-12-30T09:17:44.585Z,14.13
2018-12-30T09:20:36.027Z,15.03
2018-12-30T09:23:19.322Z,15.72
2018-12-30T09:26:09.131Z,19.92
2018-12-30T09:28:53.779Z,16.87
2018-12-30T09:31:43.971Z,17.30
2018-12-30T09:34:14.850Z,16.80
2018-12-30T09:37:04.784Z,17.02
2018-12-30T09:39:53.854Z,19.73
2018-12-30T09:42:35.842Z,29.67
2018-12-30T09:48:22.823Z,26.35
2018-12-30T09:51:05.095Z,16.57
2018-12-30T09:53:54.858Z,21.07
2018-12-30T09:56:44.701Z,17.60
2018-12-30T09:59:36.628Z,19.40
2018-12-30T10:02:20.285Z,20.03
2018-12-30T10:05:10.076Z,19.70
2018-12-30T10:07:52.095Z,22.90
2018-12-30T10:10:43.843Z,16.80
2018-12-30T10:13:14.430Z,18.40
2018-12-30T10:16:04.129Z,18.57
2018-12-30T10:18:54.351Z,20.33
2018-12-30T10:21:36.655Z,20.03
2018-12-30T10:24:26.436Z,20.90
2018-12-30T10:27:09.542Z,22.53
2018-12-30T10:29:58.956Z,20.80
2018-12-30T10:32:41.562Z,17.40
2018-12-30T10:35:32.746Z,18.75
2018-12-30T10:38:22.549Z,21.37
2018-12-30T10:41:05.498Z,21.15
2018-12-30T10:43:54.820Z,21.87
2018-12-30T10:46:44.568Z,22.67
2018-12-30T10:49:26.437Z,27.17
2018-12-30T10:52:31.045Z,19.53
2018-12-30T10:55:00.634Z,19.67
2018-12-30T10:57:50.298Z,20.35
2018-12-30T11:00:34.284Z,20.17
2018-12-30T11:03:23.698Z,22.83
2018-12-30T11:06:06.003Z,27.50
2018-12-30T11:08:55.453Z,26.30
2018-12-30T11:11:44.960Z,25.50
2018-12-30T11:14:34.699Z,27.33
2018-12-30T11:17:16.677Z,28.77
2018-12-30T11:20:06.434Z,20.67
2018-12-30T11:22:48.530Z,30.60
2018-12-30T11:25:19.661Z,25.82
2018-12-30T11:28:09.189Z,22.07
2018-12-30T11:30:58.677Z,20.12
2018-12-30T11:33:41.910Z,18.73
2018-12-30T11:39:22.122Z,16.13
2018-12-30T11:42:11.795Z,29.00
2018-12-30T11:44:53.821Z,18.23
2018-12-30T11:53:36.687Z,26.10
2018-12-30T11:56:26.063Z,26.53
2018-12-30T11:59:09.134Z,22.13
2018-12-30T12:01:58.580Z,20.57
2018-12-30T12:04:40.302Z,31.57
2018-12-30T12:07:30.009Z,30.03
2018-12-30T12:10:15.757Z,22.43
2018-12-30T12:13:05.144Z,23.23
2018-12-30T12:15:47.623Z,23.93
2018-12-30T12:18:17.849Z,21.23
2018-12-30T12:21:07.386Z,18.83
2018-12-30T12:23:53.766Z,22.00
2018-12-30T12:26:35.439Z,23.20
2018-12-30T12:29:24.839Z,23.35
2018-12-30T12:32:11.236Z,25.03
2018-12-30T12:35:00.634Z,22.10
2018-12-30T12:37:42.711Z,22.33
2018-12-30T12:40:26.384Z,18.97
2018-12-30T12:43:16.191Z,21.73
2018-12-30T12:45:57.932Z,21.87
2018-12-30T12:48:28.282Z,24.75
2018-12-30T12:51:17.958Z,17.80
2018-12-30T12:54:07.694Z,23.73
2018-12-30T12:56:57.913Z,26.37
2018-12-30T12:59:42.368Z,21.37
2018-12-30T13:02:32.204Z,22.42
2018-12-30T13:05:14.345Z,28.65
2018-12-30T13:08:24.660Z,19.87
2018-12-30T13:11:08.760Z,20.40
2018-12-30T13:13:58.485Z,21.30
2018-12-30T13:16:48.329Z,18.33
2018-12-30T13:19:38.052Z,20.17
2018-12-30T13:22:20.497Z,20.30
2018-12-30T13:25:09.965Z,17.67
2018-12-30T13:27:52.580Z,21.00
2018-12-30T13:30:42.371Z,19.87
2018-12-30T13:33:24.566Z,17.37
2018-12-30T13:36:09.081Z,19.00
2018-12-30T13:38:58.757Z,12.60
2018-12-30T13:41:41.105Z,16.97
2018-12-30T13:44:30.497Z,15.43
2018-12-30T13:47:17.444Z,20.33
2018-12-30T13:50:09.199Z,20.47
2018-12-30T13:52:51.417Z,20.17
2018-12-30T13:55:41.121Z,16.50
2018-12-30T13:58:23.351Z,17.23
2018-12-30T14:00:54.081Z,19.90
2018-12-30T14:03:43.862Z,19.23
2018-12-30T14:06:33.266Z,25.23
2018-12-30T14:11:54.836Z,23.17
2018-12-30T14:14:45.093Z,23.50
2018-12-30T14:20:11.053Z,18.17
2018-12-30T14:23:01.035Z,26.20
2018-12-30T14:25:31.331Z,25.13
2018-12-30T14:28:21.042Z,18.20
2018-12-30T14:31:03.654Z,23.13
2018-12-30T14:33:45.642Z,23.80
2018-12-30T14:36:35.182Z,13.90
2018-12-30T14:39:17.592Z,24.70
2018-12-30T14:42:27.915Z,15.47
2018-12-30T14:44:59.536Z,16.80
2018-12-30T14:47:29.882Z,20.00
2018-12-30T14:50:38.374Z,19.23
2018-12-30T14:56:34.697Z,20.27
2018-12-30T14:59:43.609Z,17.80
2018-12-30T15:02:25.359Z,23.00
2018-12-30T15:08:02.975Z,21.60
2018-12-30T15:13:41.088Z,19.23
2018-12-30T15:16:30.738Z,21.67
2018-12-30T15:19:01.107Z,21.93
2018-12-30T15:21:50.765Z,20.73
2018-12-30T15:24:40.407Z,20.82
2018-12-30T15:27:22.415Z,22.83
2018-12-30T15:30:12.043Z,24.70
2018-12-30T15:32:54.751Z,26.90
2018-12-30T15:35:36.921Z,24.20
2018-12-30T15:38:27.240Z,19.75
2018-12-30T15:41:09.870Z,24.30
2018-12-30T15:43:59.869Z,25.08
2018-12-30T15:46:42.370Z,26.43
2018-12-30T15:49:34.841Z,25.08
2018-12-30T15:52:24.660Z,28.13
2018-12-30T15:55:19.358Z,24.60
2018-12-30T15:58:00.120Z,18.40
2018-12-30T16:00:51.844Z,23.90
2018-12-30T16:03:41.289Z,27.30
2018-12-30T16:06:23.214Z,20.27
2018-12-30T16:09:13.039Z,22.73
2018-12-30T16:11:55.794Z,20.50
2018-12-30T16:14:45.493Z,18.03
2018-12-30T16:20:30.456Z,25.63
2018-12-30T16:23:16.917Z,19.70
2018-12-30T16:25:47.207Z,18.40
2018-12-30T16:28:36.549Z,19.43
2018-12-30T16:31:06.816Z,18.80
2018-12-30T16:36:59.228Z,18.33
2018-12-30T16:39:48.901Z,25.33
2018-12-30T16:42:38.511Z,16.30
2018-12-30T16:45:20.597Z,17.23
2018-12-30T16:48:10.224Z,17.45
2018-12-30T16:50:52.549Z,24.60
2018-12-30T16:53:42.401Z,22.37
2018-12-30T16:56:25.930Z,20.50
2018-12-30T16:59:36.406Z,20.03
2018-12-30T17:02:19.126Z,22.25
2018-12-30T17:08:05.676Z,18.10
2018-12-30T17:10:48.353Z,21.07
2018-12-30T17:16:38.857Z,14.10
2018-12-30T17:22:29.612Z,21.90
2018-12-30T17:25:19.239Z,16.13
2018-12-30T17:28:01.860Z,18.77
2018-12-30T17:33:56.139Z,15.80
2018-12-30T17:36:58.951Z,15.33
2018-12-30T17:39:30.679Z,21.13
2018-12-30T17:42:20.087Z,14.17
2018-12-30T17:45:02.382Z,22.70
2018-12-30T17:47:52.063Z,16.00
2018-12-30T17:50:33.697Z,18.30
2018-12-30T17:53:23.348Z,17.43
2018-12-30T17:56:07.299Z,21.37
2018-12-30T18:01:45.343Z,19.00
2018-12-30T18:10:26.415Z,19.43
2018-12-30T18:13:18.227Z,17.45
2018-12-30T18:15:59.793Z,11.33
2018-12-30T18:24:40.173Z,16.62
2018-12-30T18:30:31.284Z,16.27
2018-12-30T18:36:22.700Z,19.50
2018-12-30T18:39:12.353Z,10.23
2018-12-30T18:41:54.199Z,11.13
2018-12-30T18:50:45.304Z,20.30
2018-12-30T18:53:35.525Z,14.13
2018-12-30T18:56:17.769Z,17.93
2018-12-30T18:59:07.204Z,23.33
2018-12-30T19:01:49.339Z,16.00
2018-12-30T19:04:38.702Z,12.90
2018-12-30T19:07:22.626Z,15.33
2018-12-30T19:10:12.568Z,19.13
2018-12-30T19:13:02.412Z,20.27
2018-12-30T19:15:43.934Z,21.35
2018-12-30T19:21:31.422Z,13.58
2018-12-30T19:24:13.999Z,12.90
2018-12-30T19:27:24.003Z,15.10
2018-12-30T19:30:07.130Z,16.70
2018-12-30T19:32:56.757Z,20.97
2018-12-30T19:35:39.465Z,12.68
2018-12-30T19:38:09.716Z,17.73
2018-12-30T19:41:01.440Z,21.40
2018-12-30T19:43:43.760Z,15.80
2018-12-30T19:46:35.154Z,19.27
2018-12-30T19:49:17.273Z,19.00
2018-12-30T19:52:06.939Z,20.52
2018-12-30T19:54:37.188Z,18.17
2018-12-30T20:00:23.126Z,18.13
2018-12-30T20:03:06.259Z,20.20
2018-12-30T20:05:49.085Z,16.33
2018-12-30T20:08:31.472Z,18.40
2018-12-30T20:11:34.643Z,20.70
2018-12-30T20:14:04.803Z,21.43
2018-12-30T20:16:54.510Z,17.83
2018-12-30T20:19:36.998Z,15.03
2018-12-30T20:22:26.623Z,15.30
2018-12-30T20:25:08.788Z,22.33
2018-12-30T20:27:58.482Z,19.87
2018-12-30T20:30:42.549Z,19.77
2018-12-30T20:36:40.470Z,16.52
2018-12-30T20:39:30.604Z,20.00
2018-12-30T20:42:14.284Z,25.17
2018-12-30T20:47:52.700Z,14.20
2018-12-30T20:50:42.433Z,17.07
2018-12-30T20:53:24.315Z,19.40
2018-12-30T20:56:13.865Z,18.55
2018-12-30T20:58:55.588Z,17.47
2018-12-30T21:01:59.101Z,13.83
2018-12-30T21:04:28.779Z,17.53
2018-12-30T21:07:18.501Z,17.87
2018-12-30T21:10:00.806Z,17.43
2018-12-30T21:15:38.605Z,20.17
2018-12-30T21:18:28.164Z,16.60
2018-12-30T21:21:17.753Z,21.73
2018-12-30T21:24:01.510Z,20.03
2018-12-30T21:26:31.989Z,15.50
2018-12-30T21:29:36.777Z,18.07
2018-12-30T21:37:52.972Z,15.30
2018-12-30T21:40:42.380Z,15.00
2018-12-30T21:43:24.798Z,21.57
2018-12-30T21:49:17.917Z,22.48
2018-12-30T21:52:07.378Z,14.03
2018-12-30T21:54:49.789Z,24.60
2018-12-30T22:00:40.499Z,18.20
2018-12-30T22:03:30.190Z,14.47
2018-12-30T22:06:12.813Z,22.47
2018-12-30T22:09:02.480Z,21.77
2018-12-30T22:11:44.360Z,17.02
2018-12-30T22:17:36.784Z,18.85
2018-12-30T22:20:26.148Z,19.03
2018-12-30T22:23:08.694Z,20.17
2018-12-30T22:29:01.071Z,17.60
2018-12-30T22:31:50.469Z,20.10
2018-12-30T22:34:34.195Z,22.17
2018-12-30T22:37:17.412Z,19.47
2018-12-30T22:40:27.702Z,19.93
2018-12-30T22:43:10.148Z,21.27
2018-12-30T22:48:47.011Z,15.90
2018-12-30T22:54:39.040Z,21.73
2018-12-30T22:57:21.261Z,19.50
2018-12-30T23:03:23.544Z,21.00
2018-12-30T23:09:02.844Z,23.18
2018-12-30T23:14:46.838Z,23.23
2018-12-30T23:17:36.490Z,19.70
2018-12-30T23:20:18.834Z,28.10
2018-12-30T23:23:08.481Z,20.97
2018-12-30T23:25:50.237Z,18.00
2018-12-30T23:28:40.213Z,22.00
2018-12-30T23:31:22.156Z,21.20
2018-12-30T23:34:11.904Z,25.23
2018-12-30T23:36:54.335Z,22.03
2018-12-30T23:39:36.245Z,23.43
2018-12-30T23:45:08.259Z,20.37
2018-12-30T23:47:57.594Z,23.33
2018-12-30T23:50:39.237Z,19.83
2018-12-30T23:53:28.947Z,22.33
2018-12-30T23:56:11.007Z,22.37
2018-12-30T23:59:00.714Z,18.67
